createdAt,value
2019-04-05T00:00:13.076Z,1.70
2019-04-05T00:02:41.243Z,1.80
2019-04-05T00:05:09.723Z,1.52
2019-04-05T00:07:37.810Z,1.77
2019-04-05T00:10:06.527Z,2.05
2019-04-05T00:12:34.707Z,1.70
2019-04-05T00:15:14.641Z,1.87
2019-04-05T00:17:32.902Z,1.72
2019-04-05T00:20:01.195Z,2.02
2019-04-05T00:22:29.312Z,1.90
2019-04-05T00:24:57.436Z,1.80
2019-04-05T00:27:25.685Z,1.82
2019-04-05T00:29:53.843Z,1.70
2019-04-05T00:32:21.976Z,1.55
2019-04-05T00:34:50.114Z,1.80
2019-04-05T00:37:18.203Z,1.87
2019-04-05T00:39:46.329Z,1.70
2019-04-05T00:42:14.436Z,1.60
2019-04-05T00:44:42.555Z,1.90
2019-04-05T00:47:10.761Z,1.60
2019-04-05T00:49:39.054Z,2.10
2019-04-05T00:52:07.159Z,1.70
2019-04-05T00:54:35.347Z,1.62
2019-04-05T00:57:03.545Z,1.90
2019-04-05T00:59:31.799Z,1.75
2019-04-05T01:02:01.398Z,1.60
2019-04-05T01:04:31.059Z,1.65
2019-04-05T01:06:59.364Z,1.80
2019-04-05T01:09:27.605Z,1.62
2019-04-05T01:11:55.870Z,1.70
2019-04-05T01:14:24.338Z,1.55
2019-04-05T01:16:52.462Z,1.50
2019-04-05T01:19:20.639Z,1.50
2019-04-05T01:21:48.779Z,1.60
2019-04-05T01:24:17.648Z,1.50
2019-04-05T01:26:47.842Z,1.60
2019-04-05T01:29:16.393Z,1.70
2019-04-05T01:31:44.535Z,1.50
2019-04-05T01:34:12.708Z,1.40
2019-04-05T01:36:40.835Z,1.50
2019-04-05T01:39:10.571Z,1.60
2019-04-05T01:41:38.772Z,1.70
2019-04-05T01:44:07.048Z,1.75
2019-04-05T01:46:35.251Z,1.57
2019-04-05T01:49:03.471Z,1.70
2019-04-05T01:51:31.739Z,1.70
2019-04-05T01:53:59.883Z,1.50
2019-04-05T01:56:28.106Z,1.57
2019-04-05T01:58:56.207Z,1.60
2019-04-05T02:01:24.667Z,1.50
2019-04-05T02:03:52.924Z,1.40
2019-04-05T02:06:21.043Z,1.40
2019-04-05T02:08:49.215Z,1.62
2019-04-05T02:11:17.349Z,1.70
2019-04-05T02:13:45.762Z,1.40
2019-04-05T02:16:13.966Z,1.60
2019-04-05T02:18:42.078Z,1.55
2019-04-05T02:21:10.359Z,1.70
2019-04-05T02:23:38.507Z,1.60
2019-04-05T02:26:06.770Z,1.47
2019-04-05T02:28:35.123Z,1.65
2019-04-05T02:31:03.391Z,1.20
2019-04-05T02:33:31.515Z,1.40
2019-04-05T02:35:59.688Z,1.67
2019-04-05T02:38:27.939Z,1.35
2019-04-05T02:40:58.829Z,1.47
2019-04-05T02:43:28.200Z,1.70
2019-04-05T02:45:57.374Z,1.52
2019-04-05T02:48:26.959Z,1.42
2019-04-05T02:50:56.604Z,1.65
2019-04-05T02:53:25.284Z,1.70
2019-04-05T02:55:53.645Z,1.55
2019-04-05T02:58:22.011Z,1.50
2019-04-05T03:00:50.192Z,1.55
2019-04-05T03:03:18.451Z,1.40
2019-04-05T03:05:46.814Z,1.40
2019-04-05T03:08:15.130Z,1.50
2019-04-05T03:10:53.258Z,1.60
2019-04-05T03:13:22.683Z,1.70
2019-04-05T03:15:51.337Z,1.55
2019-04-05T03:18:19.907Z,1.60
2019-04-05T03:20:48.311Z,1.52
2019-04-05T03:23:16.489Z,1.30
2019-04-05T03:25:48.086Z,1.40
2019-04-05T03:28:14.871Z,1.30
2019-04-05T03:30:43.317Z,1.60
2019-04-05T03:33:11.418Z,1.75
2019-04-05T03:35:39.619Z,1.40
2019-04-05T03:38:07.747Z,1.40
2019-04-05T03:40:35.939Z,1.32
2019-04-05T03:43:04.136Z,1.55
2019-04-05T03:45:32.260Z,1.50
2019-04-05T03:48:00.749Z,1.40
2019-04-05T03:50:29.552Z,1.50
2019-04-05T03:52:57.926Z,1.40
2019-04-05T03:55:26.248Z,1.40
2019-04-05T03:57:54.461Z,1.55
2019-04-05T04:00:22.583Z,1.32
2019-04-05T04:02:50.757Z,1.57
2019-04-05T04:05:18.950Z,1.50
2019-04-05T04:07:47.197Z,1.50
2019-04-05T04:10:17.108Z,1.30
2019-04-05T04:12:45.468Z,1.30
2019-04-05T04:15:14.767Z,1.37
2019-04-05T04:17:43.474Z,1.40
2019-04-05T04:20:28.411Z,1.47
2019-04-05T04:22:56.674Z,1.20
2019-04-05T04:25:24.852Z,1.60
2019-04-05T04:27:53.036Z,1.20
2019-04-05T04:30:21.130Z,1.40
2019-04-05T04:32:49.425Z,1.35
2019-04-05T04:35:17.888Z,1.30
2019-04-05T04:37:46.083Z,1.40
2019-04-05T04:40:14.870Z,1.40
2019-04-05T04:42:43.080Z,1.22
2019-04-05T04:45:12.842Z,1.42
2019-04-05T04:47:41.457Z,1.37
2019-04-05T04:50:10.044Z,1.40
2019-04-05T04:52:38.443Z,1.40
2019-04-05T04:55:06.916Z,1.40
2019-04-05T04:57:35.211Z,1.30
2019-04-05T05:00:03.700Z,1.40
2019-04-05T05:02:31.998Z,1.22
2019-04-05T05:05:00.583Z,1.20
2019-04-05T05:07:29.133Z,1.20
2019-04-05T05:09:57.583Z,1.20
2019-04-05T05:12:26.067Z,1.20
2019-04-05T05:14:54.439Z,1.17
2019-04-05T05:17:22.646Z,1.47
2019-04-05T05:19:51.115Z,1.32
2019-04-05T05:22:19.283Z,1.30
2019-04-05T05:24:47.749Z,1.25
2019-04-05T05:27:16.044Z,1.17
2019-04-05T05:29:44.231Z,1.22
2019-04-05T05:32:12.413Z,1.10
2019-04-05T05:34:40.533Z,1.20
2019-04-05T05:37:08.807Z,1.22
2019-04-05T05:39:37.003Z,1.20
2019-04-05T05:42:05.352Z,1.27
2019-04-05T05:44:33.551Z,1.20
2019-04-05T05:47:01.647Z,1.30
2019-04-05T05:49:29.786Z,1.27
2019-04-05T05:51:58.538Z,1.20
2019-04-05T05:54:26.676Z,1.20
2019-04-05T05:56:54.806Z,1.20
2019-04-05T05:59:22.919Z,1.20
2019-04-05T06:01:51.191Z,1.30
2019-04-05T06:04:19.319Z,1.20
2019-04-05T06:06:47.487Z,1.40
2019-04-05T06:09:15.689Z,1.20
2019-04-05T06:11:43.803Z,1.30
2019-04-05T06:14:12.003Z,1.20
2019-04-05T06:16:46.416Z,1.40
2019-04-05T06:19:10.205Z,1.22
2019-04-05T06:21:38.388Z,1.27
2019-04-05T06:24:06.622Z,1.30
2019-04-05T06:26:34.819Z,1.20
2019-04-05T06:29:03.066Z,1.30
2019-04-05T06:31:31.158Z,1.30
2019-04-05T06:33:59.275Z,1.40
2019-04-05T06:36:27.403Z,1.30
2019-04-05T06:38:55.589Z,1.12
2019-04-05T06:41:23.729Z,1.15
2019-04-05T06:43:51.923Z,1.40
2019-04-05T06:46:20.115Z,1.20
2019-04-05T06:48:48.231Z,1.10
2019-04-05T06:51:16.371Z,1.30
2019-04-05T06:53:44.625Z,1.40
2019-04-05T06:56:12.818Z,1.10
2019-04-05T06:58:40.941Z,1.40
2019-04-05T07:01:09.071Z,1.30
2019-04-05T07:03:37.299Z,1.50
2019-04-05T07:06:05.467Z,1.12
2019-04-05T07:08:33.646Z,1.10
2019-04-05T07:11:01.760Z,1.20
2019-04-05T07:13:29.988Z,1.00
2019-04-05T07:15:58.213Z,1.20
2019-04-05T07:18:33.995Z,1.25
2019-04-05T07:20:57.845Z,1.27
2019-04-05T07:23:26.327Z,1.12
2019-04-05T07:25:54.511Z,1.02
2019-04-05T07:28:24.965Z,1.00
2019-04-05T07:30:52.515Z,1.10
2019-04-05T07:33:20.716Z,1.15
2019-04-05T07:35:48.831Z,1.22
2019-04-05T07:38:17.132Z,1.20
2019-04-05T07:40:45.312Z,1.22
2019-04-05T07:43:13.503Z,1.42
2019-04-05T07:45:41.687Z,1.25
2019-04-05T07:48:09.798Z,1.30
2019-04-05T07:50:38.082Z,1.45
2019-04-05T07:53:06.211Z,1.20
2019-04-05T07:55:34.321Z,1.22
2019-04-05T07:58:02.486Z,1.50
2019-04-05T08:00:38.238Z,1.30
2019-04-05T08:03:06.383Z,1.37
2019-04-05T08:05:34.563Z,1.60
2019-04-05T08:08:04.144Z,1.30
2019-04-05T08:10:32.358Z,1.32
2019-04-05T08:13:01.451Z,1.60
2019-04-05T08:15:29.595Z,1.60
2019-04-05T08:17:57.764Z,1.50
2019-04-05T08:20:25.856Z,1.50
2019-04-05T08:22:54.102Z,1.25
2019-04-05T08:25:22.276Z,1.30
2019-04-05T08:27:50.417Z,1.42
2019-04-05T08:30:18.514Z,1.47
2019-04-05T08:32:46.623Z,1.30
2019-04-05T08:35:14.820Z,1.47
2019-04-05T08:37:42.919Z,1.80
2019-04-05T08:40:11.378Z,1.45
2019-04-05T08:42:39.475Z,1.40
2019-04-05T08:45:07.843Z,1.42
2019-04-05T08:47:36.039Z,1.70
2019-04-05T08:50:05.769Z,1.87
2019-04-05T08:52:33.868Z,1.47
2019-04-05T08:55:02.969Z,1.55
2019-04-05T08:57:31.368Z,1.70
2019-04-05T08:59:59.489Z,3.12
2019-04-05T09:02:27.587Z,5.70
2019-04-05T09:04:55.716Z,5.17
2019-04-05T09:07:23.987Z,5.20
2019-04-05T09:09:52.250Z,5.92
2019-04-05T09:12:20.359Z,6.30
2019-04-05T09:14:48.500Z,9.18
2019-04-05T09:17:16.642Z,11.68
2019-04-05T09:19:44.947Z,12.37
2019-04-05T09:22:13.064Z,12.28
2019-04-05T09:24:41.188Z,12.28
2019-04-05T09:27:09.369Z,12.78
2019-04-05T09:29:37.490Z,12.82
2019-04-05T09:32:05.788Z,11.95
2019-04-05T09:34:33.889Z,10.95
2019-04-05T09:37:02.015Z,10.35
2019-04-05T09:39:30.196Z,8.73
2019-04-05T09:41:58.393Z,6.70
2019-04-05T09:44:26.574Z,5.20
2019-04-05T09:46:54.883Z,5.28
2019-04-05T09:49:35.808Z,4.87
2019-04-05T09:51:52.916Z,4.12
2019-04-05T09:54:21.193Z,3.50
2019-04-05T09:56:49.359Z,3.40
2019-04-05T09:59:17.594Z,3.30
2019-04-05T10:01:45.744Z,3.30
2019-04-05T10:04:13.863Z,2.72
2019-04-05T10:06:41.998Z,3.00
2019-04-05T10:09:11.749Z,2.67
2019-04-05T10:11:39.926Z,2.72
2019-04-05T10:14:08.059Z,3.00
2019-04-05T10:16:36.228Z,3.67
2019-04-05T10:19:04.629Z,3.02
2019-04-05T10:21:32.805Z,3.12
2019-04-05T10:24:00.933Z,2.77
2019-04-05T10:26:29.260Z,2.70
2019-04-05T10:28:57.455Z,3.00
2019-04-05T10:31:25.642Z,2.62
2019-04-05T10:33:53.813Z,2.70
2019-04-05T10:36:21.928Z,3.10
2019-04-05T10:38:50.039Z,2.47
2019-04-05T10:41:18.291Z,3.08
2019-04-05T10:43:46.475Z,2.67
2019-04-05T10:46:14.719Z,3.00
2019-04-05T10:48:42.868Z,3.20
2019-04-05T10:51:11.143Z,3.17
2019-04-05T10:53:39.256Z,3.00
2019-04-05T10:56:07.551Z,5.08
2019-04-05T10:58:35.718Z,7.58
2019-04-05T11:01:03.914Z,7.37
2019-04-05T11:03:32.110Z,6.85
2019-04-05T11:06:00.222Z,6.37
2019-04-05T11:08:28.428Z,8.10
2019-04-05T11:10:56.585Z,10.23
2019-04-05T11:13:24.736Z,9.43
2019-04-05T11:15:53.458Z,9.98
2019-04-05T11:18:21.605Z,9.10
2019-04-05T11:20:49.834Z,8.73
2019-04-05T11:23:20.938Z,8.55
2019-04-05T11:25:48.324Z,9.18
2019-04-05T11:28:16.536Z,9.18
2019-04-05T11:30:45.465Z,9.68
2019-04-05T11:33:13.721Z,10.03
2019-04-05T11:35:42.018Z,10.58
2019-04-05T11:38:10.396Z,10.10
2019-04-05T11:40:38.903Z,10.45
2019-04-05T11:43:07.144Z,10.40
2019-04-05T11:45:35.633Z,9.73
2019-04-05T11:48:05.339Z,9.43
2019-04-05T11:50:34.828Z,9.33
2019-04-05T11:53:03.303Z,8.20
2019-04-05T11:55:31.596Z,7.75
2019-04-05T11:57:59.769Z,6.72
2019-04-05T12:00:41.869Z,6.25
2019-04-05T12:03:12.141Z,5.87
2019-04-05T12:05:40.287Z,4.67
2019-04-05T12:10:38.475Z,5.33
2019-04-05T12:13:06.592Z,4.70
2019-04-05T12:15:35.788Z,4.40
2019-04-05T12:18:05.291Z,4.05
2019-04-05T12:20:33.803Z,4.08
2019-04-05T12:23:03.493Z,4.22
2019-04-05T12:25:31.829Z,3.80
2019-04-05T12:28:06.919Z,3.98
2019-04-05T12:30:31.456Z,3.90
2019-04-05T12:33:12.746Z,4.15
2019-04-05T12:35:29.688Z,4.17
2019-04-05T12:37:57.912Z,4.37
2019-04-05T12:40:26.100Z,4.17
2019-04-05T12:42:54.333Z,3.83
2019-04-05T12:45:22.518Z,3.67
2019-04-05T12:47:50.650Z,4.00
2019-04-05T12:50:18.936Z,3.98
2019-04-05T12:52:47.232Z,4.05
2019-04-05T12:55:15.570Z,3.45
2019-04-05T12:57:43.707Z,3.90
2019-04-05T13:00:14.348Z,3.95
2019-04-05T13:02:42.734Z,4.22
2019-04-05T13:05:11.054Z,3.75
2019-04-05T13:07:39.196Z,3.90
2019-04-05T13:10:07.628Z,4.03
2019-04-05T13:12:35.885Z,3.60
2019-04-05T13:15:12.344Z,3.58
2019-04-05T13:17:34.608Z,4.08
2019-04-05T13:20:03.200Z,3.60
2019-04-05T13:22:32.973Z,3.77
2019-04-05T13:25:01.419Z,3.40
2019-04-05T13:27:29.536Z,3.60
2019-04-05T13:29:57.666Z,3.60
2019-04-05T13:32:25.781Z,3.67
2019-04-05T13:34:55.861Z,4.30
2019-04-05T13:37:23.757Z,6.75
2019-04-05T13:39:51.898Z,4.45
2019-04-05T13:42:20.055Z,4.00
2019-04-05T13:44:48.465Z,4.37
2019-04-05T13:47:16.609Z,3.70
2019-04-05T13:49:44.727Z,3.27
2019-04-05T13:52:12.849Z,3.35
2019-04-05T13:54:41.151Z,3.85
2019-04-05T13:57:11.372Z,3.17
2019-04-05T13:59:39.168Z,3.47
2019-04-05T14:02:07.963Z,3.25
2019-04-05T14:04:36.197Z,3.92
2019-04-05T14:07:04.471Z,4.33
2019-04-05T14:09:32.670Z,3.80
2019-04-05T14:12:00.827Z,4.37
2019-04-05T14:14:29.030Z,3.83
2019-04-05T14:16:57.415Z,3.92
2019-04-05T14:19:28.628Z,4.20
2019-04-05T14:22:07.530Z,3.50
2019-04-05T14:24:25.482Z,3.87
2019-04-05T14:26:53.661Z,3.80
2019-04-05T14:29:21.877Z,4.12
2019-04-05T14:31:50.172Z,4.28
2019-04-05T14:34:18.303Z,4.12
2019-04-05T14:36:46.423Z,4.08
2019-04-05T14:39:14.787Z,4.00
2019-04-05T14:41:42.928Z,3.90
2019-04-05T14:44:14.497Z,4.10
2019-04-05T14:46:41.119Z,3.83
2019-04-05T14:49:09.225Z,4.20
2019-04-05T14:51:37.601Z,4.10
2019-04-05T14:54:05.718Z,3.85
2019-04-05T14:56:33.881Z,4.10
2019-04-05T14:59:02.104Z,3.92
2019-04-05T15:01:30.256Z,4.08
2019-04-05T15:03:58.558Z,4.53
2019-04-05T15:06:26.877Z,4.62
2019-04-05T15:08:56.429Z,8.35
2019-04-05T15:11:28.505Z,12.18
2019-04-05T15:13:54.619Z,12.45
2019-04-05T15:16:23.462Z,12.03
2019-04-05T15:18:52.456Z,9.98
2019-04-05T15:21:20.604Z,9.75
2019-04-05T15:23:48.799Z,9.65
2019-04-05T15:26:20.552Z,10.48
2019-04-05T15:28:47.055Z,8.25
2019-04-05T15:31:15.523Z,10.70
2019-04-05T15:33:43.676Z,11.15
2019-04-05T15:36:11.865Z,11.30
2019-04-05T15:38:39.997Z,11.00
2019-04-05T15:41:08.180Z,10.88
2019-04-05T15:43:36.422Z,11.03
2019-04-05T15:46:04.689Z,11.38
2019-04-05T15:48:33.162Z,7.08
2019-04-05T15:51:01.323Z,5.15
2019-04-05T15:53:31.559Z,4.92
2019-04-05T15:55:59.281Z,4.50
2019-04-05T15:58:27.411Z,3.95
2019-04-05T16:00:55.865Z,3.17
2019-04-05T16:03:24.048Z,3.30
2019-04-05T16:05:52.411Z,3.20
2019-04-05T16:08:20.520Z,3.20
2019-04-05T16:10:48.696Z,2.95
2019-04-05T16:13:16.935Z,2.98
2019-04-05T16:15:45.263Z,3.10
2019-04-05T16:18:13.406Z,2.90
2019-04-05T16:20:41.606Z,2.52
2019-04-05T16:23:10.011Z,2.85
2019-04-05T16:25:38.240Z,2.75
2019-04-05T16:28:06.703Z,2.60
2019-04-05T16:30:34.892Z,2.90
2019-04-05T16:33:03.116Z,2.90
2019-04-05T16:35:31.947Z,2.80
2019-04-05T16:38:00.204Z,3.27
2019-04-05T16:40:31.200Z,2.60
2019-04-05T16:43:02.688Z,2.67
2019-04-05T16:45:28.247Z,2.90
2019-04-05T16:47:56.347Z,2.70
2019-04-05T16:50:24.707Z,2.70
2019-04-05T16:52:52.908Z,2.83
2019-04-05T16:55:21.109Z,3.05
2019-04-05T16:57:49.214Z,2.80
2019-04-05T17:00:17.533Z,2.80
2019-04-05T17:02:45.684Z,2.70
2019-04-05T17:05:14.185Z,2.50
2019-04-05T17:07:42.292Z,2.62
2019-04-05T17:10:10.600Z,2.70
2019-04-05T17:12:38.812Z,2.75
2019-04-05T17:15:07.531Z,2.70
2019-04-05T17:17:35.857Z,2.77
2019-04-05T17:20:04.865Z,2.67
2019-04-05T17:22:32.989Z,2.98
2019-04-05T17:25:01.203Z,2.77
2019-04-05T17:27:29.585Z,2.62
2019-04-05T17:29:57.777Z,2.85
2019-04-05T17:32:25.947Z,2.65
2019-04-05T17:34:54.094Z,2.75
2019-04-05T17:37:22.304Z,2.65
2019-04-05T17:39:50.399Z,2.62
2019-04-05T17:42:18.529Z,2.83
2019-04-05T17:44:46.704Z,2.75
2019-04-05T17:47:14.882Z,2.60
2019-04-05T17:49:42.989Z,2.60
2019-04-05T17:52:11.975Z,2.98
2019-04-05T17:54:40.276Z,2.60
2019-04-05T17:57:08.459Z,2.60
2019-04-05T17:59:36.642Z,2.87
2019-04-05T18:02:05.152Z,2.75
2019-04-05T18:04:33.264Z,2.70
2019-04-05T18:07:01.387Z,2.75
2019-04-05T18:09:29.665Z,2.60
2019-04-05T18:11:57.812Z,2.92
2019-04-05T18:14:26.063Z,2.95
2019-04-05T18:16:54.276Z,2.98
2019-04-05T18:19:22.500Z,2.67
2019-04-05T18:21:50.691Z,2.75
2019-04-05T18:24:19.041Z,3.12
2019-04-05T18:26:47.179Z,2.58
2019-04-05T18:29:15.329Z,3.08
2019-04-05T18:31:43.713Z,2.87
2019-04-05T18:34:11.995Z,2.77
2019-04-05T18:36:40.092Z,2.58
2019-04-05T18:39:08.306Z,2.80
2019-04-05T18:41:36.628Z,2.98
2019-04-05T18:44:04.801Z,2.85
2019-04-05T18:46:33.039Z,2.98
2019-04-05T18:49:01.763Z,2.83
2019-04-05T18:51:29.869Z,2.70
2019-04-05T18:53:57.998Z,2.90
2019-04-05T18:56:26.251Z,2.90
2019-04-05T18:58:54.824Z,3.05
2019-04-05T19:01:22.932Z,2.80
2019-04-05T19:03:51.081Z,2.90
2019-04-05T19:06:19.268Z,3.10
2019-04-05T19:08:47.416Z,2.90
2019-04-05T19:11:15.524Z,2.98
2019-04-05T19:13:43.732Z,2.85
2019-04-05T19:16:11.858Z,2.70
2019-04-05T19:18:40.130Z,2.95
2019-04-05T19:21:08.364Z,2.62
2019-04-05T19:23:49.924Z,2.87
2019-04-05T19:26:06.715Z,2.70
2019-04-05T19:28:34.836Z,2.92
2019-04-05T19:48:34.811Z,3.17
2019-04-05T19:51:02.175Z,3.10
2019-04-05T19:53:30.308Z,2.67
2019-04-05T19:55:58.946Z,2.70
2019-04-05T19:58:27.150Z,2.65
2019-04-05T20:00:55.276Z,2.70
2019-04-05T20:03:23.491Z,2.90
2019-04-05T20:05:51.621Z,2.95
2019-04-05T20:08:19.821Z,2.70
2019-04-05T20:10:47.937Z,2.75
2019-04-05T20:13:16.069Z,2.62
2019-04-05T20:15:44.212Z,2.67
2019-04-05T20:18:12.412Z,2.27
2019-04-05T20:20:40.558Z,2.70
2019-04-05T20:23:08.682Z,2.50
2019-04-05T20:25:36.829Z,2.77
2019-04-05T20:28:05.018Z,2.87
2019-04-05T20:30:33.190Z,2.42
2019-04-05T20:33:01.343Z,2.62
2019-04-05T20:35:29.440Z,2.27
2019-04-05T20:37:57.599Z,2.40
2019-04-05T20:40:25.704Z,2.42
2019-04-05T20:42:53.860Z,2.12
2019-04-05T20:45:22.222Z,2.75
2019-04-05T20:47:50.488Z,2.58
2019-04-05T20:50:18.682Z,2.37
2019-04-05T20:52:46.890Z,2.58
2019-04-05T20:55:15.005Z,2.58
2019-04-05T20:57:43.137Z,2.47
2019-04-05T21:00:12.892Z,2.60
2019-04-05T21:02:41.026Z,2.60
2019-04-05T21:05:09.196Z,2.25
2019-04-05T21:07:37.463Z,2.55
2019-04-05T21:10:07.458Z,2.27
2019-04-05T21:12:35.616Z,2.27
2019-04-05T21:15:05.021Z,2.50
2019-04-05T21:17:33.371Z,2.30
2019-04-05T21:20:01.486Z,2.40
2019-04-05T21:22:29.663Z,2.10
2019-04-05T21:24:57.775Z,1.95
2019-04-05T21:27:25.962Z,2.00
2019-04-05T21:29:54.310Z,2.27
2019-04-05T21:32:22.528Z,2.10
2019-04-05T21:34:50.675Z,1.90
2019-04-05T21:37:18.945Z,2.30
2019-04-05T21:39:47.083Z,2.08
2019-04-05T21:42:15.297Z,2.25
2019-04-05T21:44:46.180Z,2.20
2019-04-05T21:47:13.565Z,2.35
2019-04-05T21:49:41.751Z,2.15
2019-04-05T21:52:10.051Z,2.20
2019-04-05T21:54:47.110Z,2.33
2019-04-05T21:57:08.128Z,2.20
2019-04-05T21:59:36.324Z,2.25
2019-04-05T22:02:04.703Z,1.90
2019-04-05T22:04:33.155Z,2.40
2019-04-05T22:07:01.343Z,2.27
2019-04-05T22:09:29.478Z,2.60
2019-04-05T22:11:57.751Z,2.72
2019-04-05T22:14:25.887Z,2.58
2019-04-05T22:16:54.016Z,2.65
2019-04-05T22:19:22.149Z,2.08
2019-04-05T22:21:50.361Z,2.25
2019-04-05T22:24:18.591Z,2.50
2019-04-05T22:26:46.833Z,2.67
2019-04-05T22:29:15.131Z,2.17
2019-04-05T22:31:43.315Z,2.35
2019-04-05T22:34:11.437Z,2.20
2019-04-05T22:36:39.627Z,2.10
2019-04-05T22:39:07.771Z,2.10
2019-04-05T22:41:36.071Z,2.30
2019-04-05T22:44:04.323Z,1.70
2019-04-05T22:46:32.443Z,2.00
2019-04-05T22:49:00.618Z,2.00
2019-04-05T22:51:28.983Z,1.90
2019-04-05T22:53:57.116Z,2.12
2019-04-05T22:56:25.422Z,1.90
2019-04-05T22:58:53.691Z,1.82
2019-04-05T23:01:21.868Z,2.00
2019-04-05T23:03:50.068Z,1.90
2019-04-05T23:06:18.309Z,1.80
2019-04-05T23:08:46.493Z,1.80
2019-04-05T23:11:14.638Z,1.80
2019-04-05T23:13:42.760Z,2.10
2019-04-05T23:16:10.940Z,2.00
2019-04-05T23:18:42.148Z,1.90
2019-04-05T23:21:09.948Z,2.10
2019-04-05T23:23:38.331Z,1.87
2019-04-05T23:26:06.530Z,2.00
2019-04-05T23:28:34.727Z,2.00
2019-04-05T23:31:02.937Z,1.90
2019-04-05T23:33:31.090Z,1.92
2019-04-05T23:35:59.195Z,2.00
2019-04-05T23:38:27.383Z,2.00
2019-04-05T23:40:55.563Z,1.77
2019-04-05T23:43:23.873Z,1.82
2019-04-05T23:45:52.024Z,2.12
2019-04-05T23:48:20.319Z,1.80
2019-04-05T23:50:48.570Z,1.52
2019-04-05T23:53:16.766Z,1.80
2019-04-05T23:55:45.046Z,2.17
2019-04-05T23:58:13.157Z,1.60
